This is the latest recevied weather packets stored in our database for station/object SQ8AQL-16. If no packets are shown the sender has not sent any weather packets the latest 10 day(s).
| Time | Temp. | Humidity | Pressure | Rain* | Wind** | Luminosity | Snow |
|---|---|---|---|---|---|---|---|
| 1777510534 | 0° C | 71% | 1031.5 hPa | - | - | - | - |
| 1777509633 | 0° C | 71% | 1031.5 hPa | - | - | - | - |
| 1777507831 | 0.56° C | 68% | 1031.4 hPa | - | - | - | - |
| 1777506930 | 0.56° C | 68% | 1031.5 hPa | - | - | - | - |
| 1777486199 | 7.78° C | 39% | 1029.7 hPa | - | - | 8 W/m² | - |
| 1777482595 | 12.22° C | 29% | 1029.2 hPa | - | - | 77 W/m² | - |
| 1777470879 | 18.89° C | 17% | 1027.9 hPa | - | - | 576 W/m² | - |
| 1777469077 | 21.67° C | 15% | 1027.6 hPa | - | - | 101 W/m² | - |
| 1777468175 | 18.33° C | 16% | 1027.6 hPa | - | - | 843 W/m² | - |
| 1777465472 | 18.33° C | 16% | 1027.6 hPa | - | - | 843 W/m² | - |
| 1777464571 | 18.33° C | 16% | 1027.5 hPa | - | - | 843 W/m² | - |
| 1777462769 | 18.33° C | 16% | 1027.6 hPa | - | - | 843 W/m² | - |
| 1777461867 | 18.33° C | 16% | 1027.5 hPa | - | - | 843 W/m² | - |
| 1777460966 | 18.33° C | 16% | 1027.4 hPa | - | - | 843 W/m² | - |
| 1777460065 | 7.78° C | 45% | 1027.6 hPa | - | - | 31 W/m² | - |
| 1777459163 | 7.78° C | 45% | 1027.6 hPa | - | - | 31 W/m² | - |
| 1777458262 | 7.78° C | 45% | 1027.6 hPa | - | - | 31 W/m² | - |
| 1777457361 | 7.78° C | 45% | 1027.4 hPa | - | - | 31 W/m² | - |
| 1777455559 | 7.78° C | 45% | 1027.5 hPa | - | - | 31 W/m² | - |
| 1777454657 | 7.78° C | 45% | 1027.6 hPa | - | - | 31 W/m² | - |
| 1777453756 | 7.78° C | 45% | 1027.6 hPa | - | - | 31 W/m² | - |
| 1777452855 | 7.78° C | 45% | 1027.6 hPa | - | - | 31 W/m² | - |
| 1777451953 | 7.78° C | 45% | 1027.5 hPa | - | - | 31 W/m² | - |
| 1777451053 | 7.78° C | 45% | 1027.4 hPa | - | - | 31 W/m² | - |
| 1777450152 | 7.78° C | 45% | 1027.3 hPa | - | - | 31 W/m² | - |
* Rain since midnight (hover to see other rain measurements)
** Current wind speed in m/s (hover to see current wind gust speed)